• Join FlightAware (Why Join?)
  • Login
  • US Flag 
Rudolph Flight #1: Arrived! 
07:59PM EST


 

Airport Tracker/Info


-or-


 

Live Flight TrackerFlight Track Log ✈ ASQ5929 ✈ 24-Jul-2013 ✈ KORD - KMSN

Flight Track Log - Related Links

Times and Time Zones

All times are in EDT time to prevent confusion due to time zone crossing. See the ASQ5929 flight status page for this flight to view local times or setup timezone preferences in your user account.

Time Position Orientation Groundspeed Altitude Reporting Facility
EDT Latitude Longitude Course Direction KTS MPH feet Rate Location/Type
08:31PM 42.0000 -87.9333 North 173 199 1,700  Level Chicago TRACON
08:32PM 42.0500 -87.9333 360° North 214 246 3,900 2,220 Climbing Chicago TRACON
08:33PM 42.1000 -87.9000 26° Northeast 257 296 5,700 2,340 Climbing Chicago TRACON
08:33PM 42.1578 -87.8719 20° North 265 305 7,900 2,700 Climbing Chicago Center
08:34PM 42.2333 -87.8369 19° North 286 329 10,700 2,460 Climbing Chicago Center
08:35PM 42.3611 -88.0222 340° North  Level FlightAware Approximate
08:36PM 42.4388 -88.0500 North  Level FlightAware Approximate
08:36PM 42.3122 -87.8169 11° North 297 342 13,100  Level Chicago Center
08:37PM 42.4061 -87.8183 359° North 324 373 14,000 420 Climbing Chicago Center
08:38PM 42.5064 -87.8364 352° North 365 420 14,000  Level Chicago Center
08:39PM 42.6164 -87.9053 335° Northwest 375 432 14,000  Level Chicago Center
08:40PM 42.7086 -87.9756 331° Northwest 377 434 14,000  Level Chicago Center
08:41PM 42.7850 -88.0692 318° Northwest 372 428 14,000  Level Chicago Center
08:42PM 42.8236 -88.2050 291° West 382 440 14,000  Level Chicago Center
08:43PM 42.8617 -88.3383 291° West 377 434 14,000 -120 Level Chicago Center
08:44PM 42.8989 -88.4675 292° West 367 422 13,800 -1,140 Descending Chicago Center
08:45PM 42.9406 -88.6172 291° West 362 417 11,700 -1,380 Descending Chicago Center
08:46PM 42.9733 -88.7400 290° West 345 397 11,000 -840 Descending Chicago Center
08:47PM 42.9944 -88.8464 285° West 293 337 10,000 -1,500 Descending Chicago Center
08:48PM 43.0061 -88.9542 278° West 284 327 8,000 -1,740 Descending Chicago Center
08:49PM 43.0164 -89.0583 278° West 277 319 6,500 -1,800 Descending Chicago Center
08:50PM 43.0278 -89.1708 278° West 264 304 4,400 -1,800 Descending Chicago Center
08:51PM 43.0328 -89.2658 274° West 257 296 2,900 -1,020 Descending Chicago Center
08:52PM 43.0492 -89.3328 289° West 217 250 2,300 -660 Descending Chicago Center
08:53PM 43.0881 -89.3450 347° North 168 193 1,600 -720 Descending Chicago Center